KRCR/RCR METAR and TAF weather

Enter ICAO airport designator
Station Type Date Time Source
KRCR METAR 2018/12/11 22:15 UTC NOAA

KRCR 112215Z AUTO 23003KT 10SM SCT024 02/M01 A3005 RMK AO2


Station Type Date Time Source
KRCR Decoded METAR 2018/12/11 22:15 UTC NOAA

Station name not available
Dec 11, 2018 - 05:15 PM EST / 2018.12.11 2215 UTC
Wind: from the SW (230 degrees) at 3 MPH (3 KT):0
Visibility: 10 mile(s):0
Sky conditions: partly cloudy
Temperature: 35 F (2 C)
Dew Point: 30 F (-1 C)
Relative Humidity: 80%
Pressure (altimeter): 30.05 in. Hg (1017 hPa)
ob: KRCR 112215Z AUTO 23003KT 10SM SCT024 02/M01 A3005 RMK AO2
cycle: 22

Station Type Date Time Source
KRCR TAF UTC NOAA

Error!


Example: see airport list